LAD weather

La Dilia Airport
Codazzi, César Department, Colombia

Public forecast

Using degrees Celsius for public forecast. Weather courtesy of forecast.io.

METAR (pilot weather report)

Closest report is Alfonso López Pumarejo Airport, 33.8 nm (62.5 km) NNE. Retrieved 2019/04/21 21:00 UTC (41 minutes ago):

SKVP 212100Z 06014KT 9999 FEW020TCU 34/20 A2981 RMK TCU VCSH/E/SE

TAF (pilot weather forecast)

Closest forecast is Ernesto Cortissoz International Airport, 100.6 nm (186.4 km) NW. Retrieved 2019/04/21 18:51 UTC (3 hours ago):

TAF SKBQ 211630Z 2118/2218 01010KT 9999 SCT015 TEMPO 2121/2124 5000 TSRA FEW010CB BKN015 TEMPO 2208/2213 VRB02KT 3000 BR BKN008 TX34/2118Z TN25/2210Z